Time;durP1;ratioP1;P1;durP2;ratioP2;P2;SDS_P1;SDS_P2;PMS_P1;PMS_P2;Temp;Humidity;BMP_temperature;BMP_pressure;BME280_temperature;BME280_humidity;BME280_pressure;Samples;Min_cycle;Max_cycle;Signal;HPM_P1;HPM_P2
2023/08/17 00:02:14;;;;;;;4.97;2.45;;;;;;;;;;4975594;28;20027;-74
2023/08/17 00:04:40;;;;;;;4.18;2.58;;;;;;;;;;4975775;28;20513;-73
2023/08/17 00:07:07;;;;;;;2.88;2.35;;;;;;;;;;4975757;28;20395;-74
2023/08/17 00:09:33;;;;;;;8.40;2.95;;;;;;;;;;4975665;28;20026;-73
2023/08/17 00:11:59;;;;;;;5.22;2.70;;;;;;;;;;4975464;28;20055;-73
2023/08/17 00:14:26;;;;;;;3.65;2.80;;;;;;;;;;4975359;28;20038;-73
2023/08/17 00:16:52;;;;;;;6.63;2.60;;;;;;;;;;4975338;28;20023;-74
2023/08/17 00:19:19;;;;;;;4.07;2.35;;;;;;;;;;4975399;28;20039;-73
2023/08/17 00:21:46;;;;;;;4.63;2.60;;;;;;;;;;4975255;28;20480;-74
2023/08/17 00:24:12;;;;;;;3.05;2.28;;;;;;;;;;4975411;28;20037;-73
2023/08/17 00:26:38;;;;;;;4.03;2.58;;;;;;;;;;4974057;28;20031;-73
2023/08/17 00:29:04;;;;;;;3.80;2.35;;;;;;;;;;4975292;28;20087;-73
2023/08/17 00:31:31;;;;;;;6.68;2.83;;;;;;;;;;4975513;28;20053;-73
2023/08/17 00:33:57;;;;;;;4.45;2.33;;;;;;;;;;4975136;28;20391;-73
2023/08/17 00:36:23;;;;;;;4.30;2.35;;;;;;;;;;4975362;28;20030;-73
2023/08/17 00:38:50;;;;;;;4.28;2.38;;;;;;;;;;4973463;28;20451;-73
2023/08/17 00:41:16;;;;;;;4.63;2.78;;;;;;;;;;4975346;28;20042;-73
2023/08/17 00:43:42;;;;;;;2.42;2.22;;;;;;;;;;4974898;28;20097;-74
2023/08/17 00:46:09;;;;;;;3.80;2.17;;;;;;;;;;4975259;28;20034;-73
2023/08/17 00:48:35;;;;;;;5.13;2.47;;;;;;;;;;4975265;28;20057;-73
2023/08/17 00:51:02;;;;;;;3.60;2.28;;;;;;;;;;4974837;28;20502;-73
2023/08/17 00:53:30;;;;;;;3.92;2.45;;;;;;;;;;4974508;28;20038;-73
2023/08/17 00:55:57;;;;;;;3.95;2.20;;;;;;;;;;4975158;28;20058;-73
2023/08/17 00:58:23;;;;;;;3.50;2.42;;;;;;;;;;4974938;28;20053;-73
2023/08/17 01:00:50;;;;;;;6.03;2.85;;;;;;;;;;4974748;28;20507;-73
2023/08/17 01:03:17;;;;;;;6.35;2.33;;;;;;;;;;4974644;28;20029;-73
2023/08/17 01:05:44;;;;;;;4.30;2.17;;;;;;;;;;4974669;28;20085;-73
2023/08/17 01:08:10;;;;;;;3.33;2.30;;;;;;;;;;4974205;28;20096;-73
2023/08/17 01:10:43;;;;;;;3.50;2.80;;;;;;;;;;4974612;28;20026;-73
2023/08/17 01:13:11;;;;;;;5.88;2.63;;;;;;;;;;4974696;28;20042;-74
2023/08/17 01:15:39;;;;;;;3.92;2.50;;;;;;;;;;4974243;28;20045;-73
2023/08/17 01:18:22;;;;;;;3.33;2.42;;;;;;;;;;4974109;28;20365;-73
2023/08/17 01:20:50;;;;;;;2.72;2.50;;;;;;;;;;4974339;28;20026;-73
2023/08/17 01:23:16;;;;;;;2.40;2.20;;;;;;;;;;4974052;28;20497;-73
2023/08/17 01:25:42;;;;;;;5.05;2.40;;;;;;;;;;4974563;28;20019;-74
2023/08/17 01:28:09;;;;;;;3.08;2.47;;;;;;;;;;4974252;28;20029;-73
2023/08/17 01:30:47;;;;;;;3.55;2.47;;;;;;;;;;4974221;28;20499;-73
2023/08/17 01:33:18;;;;;;;6.72;2.47;;;;;;;;;;4974077;28;20026;-73
2023/08/17 01:35:44;;;;;;;;;;;;;;;;;;4974808;28;20027;-73
2023/08/17 01:38:13;;;;;;;4.63;2.38;;;;;;;;;;4973581;28;19914;-74
2023/08/17 01:40:39;;;;;;;2.72;2.50;;;;;;;;;;4973951;28;20480;-73
2023/08/17 01:43:06;;;;;;;5.53;2.30;;;;;;;;;;4973980;28;20037;-73
2023/08/17 01:45:32;;;;;;;3.88;2.42;;;;;;;;;;4973833;28;20023;-74
2023/08/17 01:47:59;;;;;;;3.42;2.25;;;;;;;;;;4973294;28;20030;-73
2023/08/17 01:50:26;;;;;;;4.97;2.60;;;;;;;;;;4973672;28;20034;-73
2023/08/17 01:52:52;;;;;;;5.00;2.28;;;;;;;;;;4973396;28;20027;-73
2023/08/17 01:55:21;;;;;;;3.53;2.30;;;;;;;;;;4974084;28;20015;-73
2023/08/17 01:57:47;;;;;;;4.15;2.45;;;;;;;;;;4973810;28;20038;-73
2023/08/17 02:00:14;;;;;;;4.50;2.50;;;;;;;;;;4973395;28;20030;-73
2023/08/17 02:02:40;;;;;;;4.10;2.55;;;;;;;;;;4973546;28;20494;-73
2023/08/17 02:05:07;;;;;;;4.63;2.80;;;;;;;;;;4973553;28;20086;-73
2023/08/17 02:07:33;;;;;;;3.72;2.55;;;;;;;;;;4973510;28;20034;-73
2023/08/17 02:09:59;;;;;;;2.58;2.38;;;;;;;;;;4973439;28;20029;-73
2023/08/17 02:12:26;;;;;;;5.38;2.45;;;;;;;;;;4973720;28;20027;-73
2023/08/17 02:14:53;;;;;;;3.65;2.78;;;;;;;;;;4973499;28;20043;-73
2023/08/17 02:17:21;;;;;;;7.22;2.90;;;;;;;;;;4972180;28;20454;-73
2023/08/17 02:19:47;;;;;;;6.18;2.50;;;;;;;;;;4973187;28;20027;-73
2023/08/17 02:22:14;;;;;;;4.28;2.70;;;;;;;;;;4973002;28;20031;-73
2023/08/17 02:24:41;;;;;;;5.57;3.10;;;;;;;;;;4973466;28;20426;-73
2023/08/17 02:27:07;;;;;;;5.40;3.10;;;;;;;;;;4972128;28;20026;-73
2023/08/17 02:29:34;;;;;;;4.50;2.80;;;;;;;;;;4973324;28;20031;-74
2023/08/17 02:32:00;;;;;;;3.00;2.70;;;;;;;;;;4973405;28;20027;-73
2023/08/17 02:34:27;;;;;;;4.13;2.47;;;;;;;;;;4973455;28;20030;-74
2023/08/17 02:36:53;;;;;;;4.80;2.75;;;;;;;;;;4971621;28;20037;-73
2023/08/17 02:39:19;;;;;;;3.92;2.67;;;;;;;;;;4973429;28;20027;-73
2023/08/17 02:41:48;;;;;;;2.72;2.53;;;;;;;;;;4973078;28;20395;-73
2023/08/17 02:44:15;;;;;;;8.13;2.55;;;;;;;;;;4973062;28;20023;-73
2023/08/17 02:46:41;;;;;;;4.68;2.28;;;;;;;;;;4973204;28;20320;-73
2023/08/17 02:49:07;;;;;;;4.25;2.90;;;;;;;;;;4973209;28;20091;-73
2023/08/17 02:51:34;;;;;;;3.65;2.92;;;;;;;;;;4972700;28;20026;-73
2023/08/17 02:54:00;;;;;;;3.42;2.60;;;;;;;;;;4973061;28;20073;-73
2023/08/17 02:56:26;;;;;;;5.30;2.60;;;;;;;;;;4973120;28;20402;-73
2023/08/17 02:58:53;;;;;;;3.13;2.80;;;;;;;;;;4972984;28;20030;-73
2023/08/17 03:01:19;;;;;;;3.03;2.70;;;;;;;;;;4977020;28;20069;-73
2023/08/17 03:03:45;;;;;;;4.70;2.63;;;;;;;;;;4976994;28;20031;-74
2023/08/17 03:06:12;;;;;;;5.18;2.35;;;;;;;;;;4976480;28;20023;-73
2023/08/17 03:08:38;;;;;;;3.13;2.30;;;;;;;;;;4976943;28;20023;-74
2023/08/17 03:11:07;;;;;;;3.38;2.55;;;;;;;;;;4976739;28;20035;-73
2023/08/17 03:13:33;;;;;;;6.15;2.92;;;;;;;;;;4976814;28;20026;-73
2023/08/17 03:16:00;;;;;;;3.58;2.38;;;;;;;;;;4976638;28;20050;-73
2023/08/17 03:18:26;;;;;;;3.85;2.88;;;;;;;;;;4975824;28;20035;-73
2023/08/17 03:20:53;;;;;;;6.88;2.80;;;;;;;;;;4976389;28;20049;-73
2023/08/17 03:23:19;;;;;;;4.05;2.72;;;;;;;;;;4976600;28;20023;-73
2023/08/17 03:25:45;;;;;;;4.18;2.63;;;;;;;;;;4976484;28;20402;-73
2023/08/17 03:28:12;;;;;;;4.05;2.72;;;;;;;;;;4976379;28;20033;-73
2023/08/17 03:30:38;;;;;;;3.90;2.95;;;;;;;;;;4976532;28;20023;-73
2023/08/17 03:33:05;;;;;;;4.20;2.42;;;;;;;;;;4976031;28;20023;-73
2023/08/17 03:35:31;;;;;;;3.35;2.90;;;;;;;;;;4976205;28;20390;-73
2023/08/17 03:37:57;;;;;;;5.03;2.78;;;;;;;;;;4975235;28;20038;-74
2023/08/17 03:40:23;;;;;;;5.95;2.90;;;;;;;;;;4976144;28;20056;-73
2023/08/17 03:42:50;;;;;;;2.83;2.50;;;;;;;;;;4976017;28;20041;-73
2023/08/17 03:45:16;;;;;;;3.55;2.72;;;;;;;;;;4976325;28;20015;-73
2023/08/17 03:47:42;;;;;;;6.38;3.10;;;;;;;;;;4975802;28;20475;-73
2023/08/17 03:50:09;;;;;;;6.60;2.80;;;;;;;;;;4976389;28;20031;-72
2023/08/17 03:52:36;;;;;;;5.07;2.50;;;;;;;;;;4975972;28;20027;-74
2023/08/17 03:55:02;;;;;;;3.13;2.83;;;;;;;;;;4976224;28;20077;-73
2023/08/17 03:57:28;;;;;;;5.55;3.00;;;;;;;;;;4975916;28;20402;-73
2023/08/17 03:59:55;;;;;;;4.35;3.05;;;;;;;;;;4976025;28;20034;-73
2023/08/17 04:02:21;;;;;;;2.90;2.60;;;;;;;;;;4975813;28;20027;-73
2023/08/17 04:04:47;;;;;;;4.80;2.80;;;;;;;;;;4975732;28;20395;-73
2023/08/17 04:07:20;;;;;;;3.28;2.60;;;;;;;;;;4975980;28;20029;-73
2023/08/17 04:09:47;;;;;;;5.75;2.58;;;;;;;;;;4975218;28;20031;-73
2023/08/17 04:12:13;;;;;;;4.90;2.70;;;;;;;;;;4975569;28;20073;-73
2023/08/17 04:14:39;;;;;;;3.53;2.67;;;;;;;;;;4975577;28;20019;-73
2023/08/17 04:17:06;;;;;;;5.13;2.78;;;;;;;;;;4975150;28;20507;-73
2023/08/17 04:19:33;;;;;;;4.07;2.63;;;;;;;;;;4975161;28;20037;-73
2023/08/17 04:21:59;;;;;;;6.03;2.70;;;;;;;;;;4975507;28;20035;-73
2023/08/17 04:24:25;;;;;;;4.40;2.80;;;;;;;;;;4975303;28;20027;-73
2023/08/17 04:26:52;;;;;;;4.00;2.60;;;;;;;;;;4975380;28;20041;-73
2023/08/17 04:29:18;;;;;;;4.30;2.97;;;;;;;;;;4975393;28;20391;-73
2023/08/17 04:31:45;;;;;;;2.83;2.53;;;;;;;;;;4975179;28;20039;-73
2023/08/17 04:34:11;;;;;;;4.60;2.80;;;;;;;;;;4975265;28;20488;-73
2023/08/17 04:36:38;;;;;;;3.33;2.65;;;;;;;;;;4975415;28;20030;-73
2023/08/17 04:39:04;;;;;;;3.05;2.50;;;;;;;;;;4975033;28;20027;-73
2023/08/17 04:41:31;;;;;;;5.90;2.85;;;;;;;;;;4974976;28;20031;-73
2023/08/17 04:43:57;;;;;;;5.43;2.78;;;;;;;;;;4975161;28;20035;-73
2023/08/17 04:46:23;;;;;;;5.25;2.83;;;;;;;;;;4974850;28;20031;-73
2023/08/17 04:48:50;;;;;;;6.88;2.70;;;;;;;;;;4975032;28;20015;-73
2023/08/17 04:51:16;;;;;;;3.45;2.78;;;;;;;;;;4973942;28;20022;-73
2023/08/17 04:53:42;;;;;;;4.20;2.67;;;;;;;;;;4975091;28;20030;-73
2023/08/17 04:56:09;;;;;;;6.38;2.92;;;;;;;;;;4975063;28;20023;-73
2023/08/17 04:58:35;;;;;;;4.55;2.88;;;;;;;;;;4975062;28;20027;-73
2023/08/17 05:01:01;;;;;;;3.00;2.55;;;;;;;;;;4974676;28;20041;-73
2023/08/17 05:03:27;;;;;;;5.47;2.50;;;;;;;;;;4974753;28;20023;-73
2023/08/17 05:05:54;;;;;;;5.03;2.80;;;;;;;;;;4974902;28;20057;-73
2023/08/17 05:08:22;;;;;;;3.78;2.65;;;;;;;;;;4974633;28;20022;-73
2023/08/17 05:10:48;;;;;;;4.60;2.80;;;;;;;;;;4974659;28;20035;-73
2023/08/17 05:13:14;;;;;;;5.50;2.63;;;;;;;;;;4974547;28;20019;-73
2023/08/17 05:15:41;;;;;;;3.60;2.80;;;;;;;;;;4972790;28;20058;-73
2023/08/17 05:18:08;;;;;;;4.47;3.20;;;;;;;;;;4974035;28;20037;-73
2023/08/17 05:20:34;;;;;;;3.67;2.95;;;;;;;;;;4974410;28;20035;-73
2023/08/17 05:23:01;;;;;;;4.22;3.25;;;;;;;;;;4973457;28;20031;-73
2023/08/17 05:25:29;;;;;;;4.90;3.33;;;;;;;;;;4974474;28;20029;-73
2023/08/17 05:27:55;;;;;;;7.40;3.42;;;;;;;;;;4973043;28;20033;-73
2023/08/17 05:30:22;;;;;;;5.80;3.30;;;;;;;;;;4974112;28;20023;-73
2023/08/17 05:32:48;;;;;;;5.80;3.10;;;;;;;;;;4974169;28;20533;-73
2023/08/17 05:35:14;;;;;;;3.70;2.80;;;;;;;;;;4974123;28;20027;-73
2023/08/17 05:37:41;;;;;;;5.18;3.40;;;;;;;;;;4973925;28;20116;-72
2023/08/17 05:40:08;;;;;;;5.43;3.00;;;;;;;;;;4974029;28;20403;-73
2023/08/17 05:42:35;;;;;;;6.35;3.88;;;;;;;;;;4974103;28;20034;-73
2023/08/17 05:45:01;;;;;;;4.47;3.05;;;;;;;;;;4973837;28;20022;-73
2023/08/17 05:47:27;;;;;;;7.35;3.22;;;;;;;;;;4974087;28;20030;-73
2023/08/17 05:49:54;;;;;;;5.85;3.67;;;;;;;;;;4973839;28;20099;-73
2023/08/17 05:52:20;;;;;;;6.05;3.45;;;;;;;;;;4974058;28;20045;-73
2023/08/17 05:54:46;;;;;;;4.88;3.38;;;;;;;;;;4973814;28;20399;-73
2023/08/17 05:57:13;;;;;;;6.93;3.20;;;;;;;;;;4973824;28;20480;-73
2023/08/17 05:59:39;;;;;;;5.07;3.50;;;;;;;;;;4973573;28;20037;-72
2023/08/17 06:02:06;;;;;;;5.57;3.28;;;;;;;;;;4973484;28;20403;-73
2023/08/17 06:04:32;;;;;;;4.25;3.30;;;;;;;;;;4973628;28;20031;-73
2023/08/17 06:06:58;;;;;;;5.03;3.20;;;;;;;;;;4973521;28;20037;-73
2023/08/17 06:09:25;;;;;;;10.35;3.42;;;;;;;;;;4973592;28;20023;-73
2023/08/17 06:11:51;;;;;;;3.90;3.50;;;;;;;;;;4973384;28;20021;-73
2023/08/17 06:14:17;;;;;;;5.88;3.35;;;;;;;;;;4973148;28;20026;-72
2023/08/17 06:16:44;;;;;;;6.22;3.17;;;;;;;;;;4972914;28;20057;-73
2023/08/17 06:19:10;;;;;;;6.43;3.15;;;;;;;;;;4967770;28;20072;-70
2023/08/17 06:21:36;;;;;;;6.18;3.38;;;;;;;;;;4972702;28;20035;-69
2023/08/17 06:24:03;;;;;;;7.78;3.40;;;;;;;;;;4973186;28;20030;-70
2023/08/17 06:26:29;;;;;;;8.30;3.67;;;;;;;;;;4972784;28;20018;-70
2023/08/17 06:28:56;;;;;;;8.57;3.47;;;;;;;;;;4972700;28;20027;-70
2023/08/17 06:31:27;;;;;;;4.75;3.50;;;;;;;;;;4972751;28;20031;-68
2023/08/17 06:33:54;;;;;;;8.65;3.20;;;;;;;;;;4972415;28;20398;-69
2023/08/17 06:36:20;;;;;;;7.35;3.30;;;;;;;;;;4972951;28;20065;-69
2023/08/17 06:38:47;;;;;;;3.58;2.92;;;;;;;;;;4973042;28;20042;-69
2023/08/17 06:41:13;;;;;;;4.57;3.28;;;;;;;;;;4973044;28;20027;-70
2023/08/17 06:43:40;;;;;;;4.60;3.08;;;;;;;;;;4971919;28;20021;-70
2023/08/17 06:46:06;;;;;;;5.03;3.35;;;;;;;;;;4972769;28;20506;-70
2023/08/17 06:48:32;;;;;;;6.53;3.50;;;;;;;;;;4971588;28;20077;-70
2023/08/17 06:50:59;;;;;;;4.20;3.08;;;;;;;;;;4972988;28;20029;-70
2023/08/17 06:53:25;;;;;;;5.05;3.40;;;;;;;;;;4953852;28;20026;-70
2023/08/17 06:55:51;;;;;;;5.85;3.10;;;;;;;;;;4951726;28;20037;-71
2023/08/17 06:58:18;;;;;;;3.78;3.08;;;;;;;;;;4972174;28;20031;-69
2023/08/17 07:00:45;;;;;;;5.63;3.40;;;;;;;;;;4972091;28;20038;-70
2023/08/17 07:03:11;;;;;;;3.75;3.08;;;;;;;;;;4972369;28;20027;-70
2023/08/17 07:05:37;;;;;;;5.60;3.35;;;;;;;;;;4972361;28;20084;-70
2023/08/17 07:08:04;;;;;;;5.38;3.00;;;;;;;;;;4971844;28;20018;-71
2023/08/17 07:10:30;;;;;;;7.90;3.40;;;;;;;;;;4955927;28;20039;-70
2023/08/17 07:12:57;;;;;;;4.78;3.60;;;;;;;;;;4965770;28;20035;-70
2023/08/17 07:15:23;;;;;;;5.90;3.58;;;;;;;;;;4971166;28;20039;-69
2023/08/17 07:17:49;;;;;;;3.40;2.90;;;;;;;;;;4971856;28;20446;-69
2023/08/17 07:20:16;;;;;;;3.58;3.17;;;;;;;;;;4964980;28;20023;-69
2023/08/17 07:22:42;;;;;;;11.93;3.67;;;;;;;;;;4971751;28;20039;-69
2023/08/17 07:25:08;;;;;;;3.97;3.10;;;;;;;;;;4971901;28;20466;-69
2023/08/17 07:27:35;;;;;;;8.93;3.20;;;;;;;;;;4972261;28;20026;-70
2023/08/17 07:30:01;;;;;;;11.77;3.40;;;;;;;;;;4972079;28;20039;-70
2023/08/17 07:32:27;;;;;;;6.97;3.25;;;;;;;;;;4972450;28;20027;-69
2023/08/17 07:34:54;;;;;;;4.70;3.17;;;;;;;;;;4970395;28;20395;-71
2023/08/17 07:37:20;;;;;;;8.07;3.42;;;;;;;;;;4971693;28;20031;-70
2023/08/17 07:39:47;;;;;;;7.10;3.20;;;;;;;;;;4971146;28;20035;-71
2023/08/17 07:42:13;;;;;;;5.63;3.00;;;;;;;;;;4971802;28;20098;-71
2023/08/17 07:44:39;;;;;;;4.05;3.28;;;;;;;;;;4972052;28;20031;-71
2023/08/17 07:47:06;;;;;;;6.63;3.25;;;;;;;;;;4974406;28;20282;-71
2023/08/17 07:49:32;;;;;;;5.10;3.25;;;;;;;;;;4967868;28;20038;-72
2023/08/17 07:51:59;;;;;;;9.95;2.97;;;;;;;;;;4968071;28;20031;-71
2023/08/17 07:54:25;;;;;;;3.47;2.63;;;;;;;;;;4969632;28;20078;-71
2023/08/17 07:56:51;;;;;;;3.90;2.72;;;;;;;;;;4955919;29;20391;-70
2023/08/17 07:59:18;;;;;;;3.03;2.65;;;;;;;;;;4973858;28;20031;-70
2023/08/17 08:01:44;;;;;;;8.52;2.85;;;;;;;;;;4968127;28;20046;-71
2023/08/17 08:04:10;;;;;;;3.15;2.85;;;;;;;;;;4974299;28;20041;-70
2023/08/17 08:06:36;;;;;;;3.13;2.80;;;;;;;;;;4975247;28;20031;-72
2023/08/17 08:09:03;;;;;;;3.78;2.35;;;;;;;;;;4972941;28;20027;-69
2023/08/17 08:11:30;;;;;;;3.97;2.70;;;;;;;;;;4970139;28;20029;-68
2023/08/17 08:13:57;;;;;;;4.20;2.65;;;;;;;;;;4974837;28;20027;-69
2023/08/17 08:16:24;;;;;;;8.15;3.00;;;;;;;;;;4974482;28;20534;-68
2023/08/17 08:18:50;;;;;;;5.80;3.00;;;;;;;;;;4974739;28;20022;-68
2023/08/17 08:21:16;;;;;;;6.97;3.22;;;;;;;;;;4974524;28;20046;-68
2023/08/17 08:23:44;;;;;;;5.95;3.17;;;;;;;;;;4974075;28;20054;-69
2023/08/17 08:26:10;;;;;;;5.22;2.88;;;;;;;;;;4971387;28;20019;-68
2023/08/17 08:28:37;;;;;;;5.38;2.78;;;;;;;;;;4974201;28;20053;-68
2023/08/17 08:31:03;;;;;;;5.32;2.50;;;;;;;;;;4974144;28;20031;-68
2023/08/17 08:33:30;;;;;;;4.22;2.58;;;;;;;;;;4973278;28;20069;-68
2023/08/17 08:35:56;;;;;;;5.60;2.95;;;;;;;;;;4973369;28;20031;-67
2023/08/17 08:38:23;;;;;;;5.30;3.15;;;;;;;;;;4973958;28;20043;-68
2023/08/17 08:40:49;;;;;;;3.33;3.05;;;;;;;;;;4967596;28;20027;-68
2023/08/17 08:43:16;;;;;;;7.22;3.97;;;;;;;;;;4969887;28;20507;-68
2023/08/17 08:45:44;;;;;;;7.57;4.00;;;;;;;;;;4967100;28;20027;-67
2023/08/17 08:48:12;;;;;;;9.52;3.38;;;;;;;;;;4971906;28;20458;-68
2023/08/17 08:50:40;;;;;;;5.00;3.00;;;;;;;;;;4974300;28;20026;-68
2023/08/17 08:53:11;;;;;;;6.35;3.40;;;;;;;;;;4974078;28;20510;-68
2023/08/17 08:55:38;;;;;;;9.73;2.70;;;;;;;;;;4973667;28;20022;-68
2023/08/17 08:58:06;;;;;;;5.75;2.88;;;;;;;;;;4973946;28;20027;-69
2023/08/17 09:00:34;;;;;;;3.08;2.75;;;;;;;;;;4964211;28;20020;-67
2023/08/17 09:03:03;;;;;;;4.70;2.70;;;;;;;;;;4955105;29;20492;-68
2023/08/17 09:05:32;;;;;;;4.68;2.70;;;;;;;;;;4957813;28;20391;-68
2023/08/17 09:07:59;;;;;;;5.13;2.75;;;;;;;;;;4973296;28;20035;-68
2023/08/17 09:10:26;;;;;;;4.05;3.05;;;;;;;;;;4964853;28;20031;-68
2023/08/17 09:12:52;;;;;;;6.15;2.78;;;;;;;;;;4967082;28;20419;-68
2023/08/17 09:15:19;;;;;;;7.95;2.80;;;;;;;;;;4973637;28;20100;-67
2023/08/17 09:17:47;;;;;;;4.43;2.72;;;;;;;;;;4973774;28;20046;-69
2023/08/17 09:20:33;;;;;;;5.50;2.45;;;;;;;;;;4974079;28;20027;-66
2023/08/17 09:23:03;;;;;;;2.95;2.50;;;;;;;;;;4973636;28;20418;-67
2023/08/17 09:25:34;;;;;;;7.32;2.05;;;;;;;;;;4973026;28;20381;-68
2023/08/17 09:28:00;;;;;;;;;;;;;;;;;;4973452;28;20037;-68
2023/08/17 09:30:26;;;;;;;7.82;2.42;;;;;;;;;;4973214;28;20329;-68
2023/08/17 09:32:52;;;;;;;5.60;2.20;;;;;;;;;;4974071;28;20030;-67
2023/08/17 09:35:19;;;;;;;3.33;1.77;;;;;;;;;;4973489;28;20492;-68
2023/08/17 09:37:45;;;;;;;3.60;2.10;;;;;;;;;;4973630;28;20023;-68
2023/08/17 09:40:11;;;;;;;4.72;2.50;;;;;;;;;;4974006;28;20030;-68
2023/08/17 09:42:39;;;;;;;7.47;2.03;;;;;;;;;;4973818;28;20043;-68
2023/08/17 09:45:05;;;;;;;2.85;1.30;;;;;;;;;;4973741;28;20037;-68
2023/08/17 09:47:32;;;;;;;2.80;1.80;;;;;;;;;;4957207;28;20055;-67
2023/08/17 09:49:58;;;;;;;4.88;1.40;;;;;;;;;;4953717;29;20022;-68
2023/08/17 09:52:24;;;;;;;6.85;1.70;;;;;;;;;;4963906;28;20042;-67
2023/08/17 09:54:52;;;;;;;8.60;1.50;;;;;;;;;;4961919;28;20041;-69
2023/08/17 09:57:18;;;;;;;2.92;1.35;;;;;;;;;;4972568;28;20498;-69
2023/08/17 09:59:45;;;;;;;2.70;1.48;;;;;;;;;;4972924;28;20018;-68
2023/08/17 10:02:21;;;;;;;5.13;1.35;;;;;;;;;;4970541;28;20418;-68
2023/08/17 10:04:52;;;;;;;1.80;1.25;;;;;;;;;;4972792;28;20533;-69
2023/08/17 10:07:22;;;;;;;2.80;1.13;;;;;;;;;;4961197;28;20042;-68
2023/08/17 10:09:50;;;;;;;2.75;1.38;;;;;;;;;;4953504;29;20019;-68
2023/08/17 10:12:17;;;;;;;2.10;1.30;;;;;;;;;;4961176;28;20504;-68
2023/08/17 10:14:46;;;;;;;4.00;1.35;;;;;;;;;;4973153;28;20031;-65
2023/08/17 10:17:15;;;;;;;1.13;1.00;;;;;;;;;;4962388;28;20023;-65
2023/08/17 10:19:51;;;;;;;7.55;1.38;;;;;;;;;;4970984;28;20042;-65
2023/08/17 10:22:24;;;;;;;1.55;1.45;;;;;;;;;;4961560;28;20047;-65
2023/08/17 10:24:51;;;;;;;5.45;1.35;;;;;;;;;;4953908;29;20035;-66
2023/08/17 10:27:17;;;;;;;2.88;1.85;;;;;;;;;;4954014;29;20041;-66
2023/08/17 10:29:44;;;;;;;1.60;1.05;;;;;;;;;;4953919;29;20111;-66
2023/08/17 10:32:11;;;;;;;2.60;1.20;;;;;;;;;;4953626;29;20051;-66
2023/08/17 10:34:38;;;;;;;2.58;1.38;;;;;;;;;;4953654;29;20027;-66
2023/08/17 10:37:05;;;;;;;3.47;1.55;;;;;;;;;;4953705;29;20034;-66
2023/08/17 10:39:31;;;;;;;2.15;1.20;;;;;;;;;;4953949;29;20034;-66
2023/08/17 10:41:58;;;;;;;4.40;1.23;;;;;;;;;;4953710;29;20036;-65
2023/08/17 10:44:40;;;;;;;1.70;1.17;;;;;;;;;;4953891;29;20020;-65
2023/08/17 10:47:23;;;;;;;3.50;1.20;;;;;;;;;;4954078;29;20041;-66
2023/08/17 10:49:50;;;;;;;4.80;1.42;;;;;;;;;;4953547;29;20362;-66
2023/08/17 10:52:25;;;;;;;3.33;1.42;;;;;;;;;;4953677;29;20023;-65
2023/08/17 10:54:51;;;;;;;3.28;1.13;;;;;;;;;;4953855;29;20026;-66
2023/08/17 10:57:30;;;;;;;1.52;1.15;;;;;;;;;;4953739;29;20028;-66
2023/08/17 11:00:13;;;;;;;1.65;1.30;;;;;;;;;;4953747;29;20480;-66
2023/08/17 11:02:39;;;;;;;1.45;1.27;;;;;;;;;;4953344;29;20042;-64
2023/08/17 11:05:07;;;;;;;1.60;1.20;;;;;;;;;;4953625;29;20019;-65
2023/08/17 11:07:43;;;;;;;4.82;1.20;;;;;;;;;;4953664;29;20027;-65
2023/08/17 11:10:11;;;;;;;2.15;1.20;;;;;;;;;;4953661;29;20026;-65
2023/08/17 11:12:37;;;;;;;2.40;1.20;;;;;;;;;;4963891;28;20054;-64
2023/08/17 11:15:04;;;;;;;3.85;1.00;;;;;;;;;;4972667;28;20043;-64
2023/08/17 11:17:30;;;;;;;1.30;1.05;;;;;;;;;;4972292;28;20081;-64
2023/08/17 11:19:57;;;;;;;2.03;1.10;;;;;;;;;;4973183;28;20030;-64
2023/08/17 11:22:23;;;;;;;2.28;1.45;;;;;;;;;;4976439;28;20047;-65
2023/08/17 11:24:49;;;;;;;4.10;1.40;;;;;;;;;;4976582;28;20389;-66
2023/08/17 11:27:16;;;;;;;2.80;1.30;;;;;;;;;;4976516;28;20030;-66
2023/08/17 11:29:42;;;;;;;4.93;1.40;;;;;;;;;;4975249;28;20039;-65
2023/08/17 11:32:11;;;;;;;2.78;1.55;;;;;;;;;;4975944;28;20034;-65
2023/08/17 11:34:37;;;;;;;1.38;1.25;;;;;;;;;;4976404;28;20019;-65
2023/08/17 11:37:04;;;;;;;4.60;1.15;;;;;;;;;;4976055;28;20030;-65
2023/08/17 11:39:35;;;;;;;1.92;1.00;;;;;;;;;;4976074;28;20415;-65
2023/08/17 11:42:01;;;;;;;4.47;1.23;;;;;;;;;;4971304;28;20022;-64
2023/08/17 11:44:27;;;;;;;5.20;1.45;;;;;;;;;;4974487;28;20030;-63
2023/08/17 11:46:54;;;;;;;2.15;1.40;;;;;;;;;;4974643;28;20035;-63
2023/08/17 11:49:22;;;;;;;1.65;1.38;;;;;;;;;;4975812;28;20039;-62
2023/08/17 11:51:48;;;;;;;2.35;1.20;;;;;;;;;;4975560;28;20026;-64
2023/08/17 11:54:14;;;;;;;1.27;1.00;;;;;;;;;;4975249;28;20435;-65
2023/08/17 11:56:41;;;;;;;3.75;1.40;;;;;;;;;;4974598;28;20023;-65
2023/08/17 11:59:13;;;;;;;1.55;1.30;;;;;;;;;;4975547;28;20634;-63
2023/08/17 12:01:40;;;;;;;1.98;1.30;;;;;;;;;;4974660;28;20053;-63
2023/08/17 12:04:07;;;;;;;3.40;1.10;;;;;;;;;;4975299;28;20073;-63
2023/08/17 12:06:33;;;;;;;1.88;1.10;;;;;;;;;;4967878;28;20031;-63
2023/08/17 12:09:00;;;;;;;3.88;1.40;;;;;;;;;;4955818;29;20399;-64
2023/08/17 12:11:26;;;;;;;5.30;1.58;;;;;;;;;;4956407;28;20395;-62
2023/08/17 12:13:53;;;;;;;5.35;1.70;;;;;;;;;;4975290;28;20022;-64
2023/08/17 12:16:20;;;;;;;2.05;1.20;;;;;;;;;;4974412;28;20047;-64
2023/08/17 12:18:50;;;;;;;3.70;1.55;;;;;;;;;;4974635;28;20033;-64
2023/08/17 12:21:16;;;;;;;3.60;1.42;;;;;;;;;;4970507;28;20023;-65
2023/08/17 12:23:43;;;;;;;2.38;1.40;;;;;;;;;;4955553;29;20504;-65
2023/08/17 12:26:09;;;;;;;3.53;1.80;;;;;;;;;;4955628;28;20447;-64
2023/08/17 12:28:35;;;;;;;2.78;1.38;;;;;;;;;;4955404;29;20773;-65
2023/08/17 12:31:02;;;;;;;4.60;1.75;;;;;;;;;;4960238;28;20496;-63
2023/08/17 12:33:29;;;;;;;3.38;1.70;;;;;;;;;;4974516;28;20274;-63
2023/08/17 12:35:56;;;;;;;3.88;1.67;;;;;;;;;;4974519;28;20037;-63
2023/08/17 12:38:24;;;;;;;3.95;1.55;;;;;;;;;;4974338;28;20027;-64
2023/08/17 12:40:50;;;;;;;2.40;1.60;;;;;;;;;;4974402;28;20484;-63
2023/08/17 12:43:16;;;;;;;6.03;1.80;;;;;;;;;;4974376;28;20406;-64
2023/08/17 12:45:43;;;;;;;2.92;1.70;;;;;;;;;;4973614;28;20034;-63
2023/08/17 12:48:09;;;;;;;2.10;1.30;;;;;;;;;;4974229;28;20045;-62
2023/08/17 12:50:35;;;;;;;3.90;1.30;;;;;;;;;;4973667;28;20771;-62
2023/08/17 12:53:02;;;;;;;2.97;1.60;;;;;;;;;;4973659;28;20027;-61
2023/08/17 12:55:28;;;;;;;6.25;1.50;;;;;;;;;;4974106;28;20039;-63
2023/08/17 12:57:54;;;;;;;7.72;1.50;;;;;;;;;;4974004;28;20027;-62
2023/08/17 13:00:20;;;;;;;2.03;1.20;;;;;;;;;;4974104;28;20043;-61
2023/08/17 13:02:49;;;;;;;4.88;1.50;;;;;;;;;;4973239;28;20046;-63
2023/08/17 13:05:15;;;;;;;2.67;1.42;;;;;;;;;;4973749;28;20023;-63
2023/08/17 13:07:41;;;;;;;4.03;1.40;;;;;;;;;;4972997;28;20039;-61
2023/08/17 13:10:08;;;;;;;3.25;1.75;;;;;;;;;;4974169;28;20029;-62
2023/08/17 13:12:34;;;;;;;9.30;1.40;;;;;;;;;;4971749;28;20031;-63
2023/08/17 13:15:00;;;;;;;2.55;1.35;;;;;;;;;;4973445;28;20030;-62
2023/08/17 13:17:27;;;;;;;8.10;1.10;;;;;;;;;;4973387;28;20035;-64
2023/08/17 13:19:53;;;;;;;3.30;1.40;;;;;;;;;;4973773;28;20089;-63
2023/08/17 13:22:19;;;;;;;2.55;1.55;;;;;;;;;;4964192;28;20408;-63
2023/08/17 13:24:45;;;;;;;3.15;1.50;;;;;;;;;;4964506;28;20033;-63
2023/08/17 13:27:12;;;;;;;2.10;1.23;;;;;;;;;;4960927;28;20454;-61
2023/08/17 13:29:38;;;;;;;3.63;1.40;;;;;;;;;;4973080;28;20026;-60
2023/08/17 13:32:05;;;;;;;3.10;1.30;;;;;;;;;;4966753;28;20073;-62
2023/08/17 13:34:31;;;;;;;2.70;1.73;;;;;;;;;;4954354;29;20427;-61
2023/08/17 13:36:57;;;;;;;4.75;1.25;;;;;;;;;;4968973;28;20035;-63
2023/08/17 13:39:24;;;;;;;4.75;1.40;;;;;;;;;;4954508;29;20027;-63
2023/08/17 13:41:50;;;;;;;5.00;1.42;;;;;;;;;;4954071;28;20042;-62
2023/08/17 13:44:16;;;;;;;5.90;1.77;;;;;;;;;;4968773;28;20029;-63
2023/08/17 13:46:43;;;;;;;3.08;1.60;;;;;;;;;;4973279;28;20034;-61
2023/08/17 13:49:09;;;;;;;3.08;1.67;;;;;;;;;;4973692;28;20033;-60
2023/08/17 13:51:35;;;;;;;4.32;1.50;;;;;;;;;;4971347;28;20023;-61
2023/08/17 13:54:02;;;;;;;5.55;1.58;;;;;;;;;;4972189;28;20035;-62
2023/08/17 13:56:28;;;;;;;3.78;1.55;;;;;;;;;;4972099;28;20036;-61
2023/08/17 13:58:55;;;;;;;5.15;1.25;;;;;;;;;;4961391;28;20029;-63
2023/08/17 14:01:21;;;;;;;2.10;1.30;;;;;;;;;;4973038;28;20030;-63
2023/08/17 14:03:47;;;;;;;3.75;1.70;;;;;;;;;;4972653;28;20019;-63
2023/08/17 14:06:14;;;;;;;2.47;1.33;;;;;;;;;;4971693;28;20037;-64
2023/08/17 14:08:40;;;;;;;2.33;1.50;;;;;;;;;;4966077;28;20069;-63
2023/08/17 14:11:06;;;;;;;3.03;2.03;;;;;;;;;;4972629;28;20469;-64
2023/08/17 14:13:34;;;;;;;3.33;1.42;;;;;;;;;;4972178;28;20501;-62
2023/08/17 14:16:00;;;;;;;1.98;1.30;;;;;;;;;;4972809;28;20049;-64
2023/08/17 14:18:27;;;;;;;3.38;1.20;;;;;;;;;;4965083;28;20031;-63
2023/08/17 14:20:53;;;;;;;1.60;1.33;;;;;;;;;;4972795;28;20035;-63
2023/08/17 14:23:19;;;;;;;2.55;1.40;;;;;;;;;;4972838;28;20039;-64
2023/08/17 14:25:46;;;;;;;1.40;1.30;;;;;;;;;;4972452;28;20037;-63
2023/08/17 14:28:12;;;;;;;2.25;1.40;;;;;;;;;;4958487;28;20499;-69
2023/08/17 14:30:38;;;;;;;1.67;1.05;;;;;;;;;;4964678;28;20023;-69
2023/08/17 14:33:04;;;;;;;4.85;1.30;;;;;;;;;;4972406;28;20034;-69
2023/08/17 14:35:31;;;;;;;5.55;1.55;;;;;;;;;;4972758;28;20023;-69
2023/08/17 14:38:00;;;;;;;2.70;1.20;;;;;;;;;;4962565;28;20023;-69
2023/08/17 14:40:27;;;;;;;4.40;1.23;;;;;;;;;;4953495;29;20054;-69
2023/08/17 14:42:53;;;;;;;2.60;1.25;;;;;;;;;;4964050;28;20054;-69